sensor_id;sensor_type;location;lat;lon;timestamp;P1;durP1;ratioP1;P2;durP2;ratioP2
45540;SDS011;31265;49.680;8.608;2023-10-13T00:01:48;5.80;;;2.75;;
45540;SDS011;31265;49.680;8.608;2023-10-13T00:04:20;6.88;;;2.67;;
45540;SDS011;31265;49.680;8.608;2023-10-13T00:06:51;7.78;;;3.03;;
45540;SDS011;31265;49.680;8.608;2023-10-13T00:09:20;13.88;;;3.90;;
45540;SDS011;31265;49.680;8.608;2023-10-13T00:11:52;5.53;;;2.50;;
45540;SDS011;31265;49.680;8.608;2023-10-13T00:14:23;6.65;;;3.05;;
45540;SDS011;31265;49.680;8.608;2023-10-13T00:16:59;7.22;;;2.78;;
45540;SDS011;31265;49.680;8.608;2023-10-13T00:19:33;8.63;;;2.88;;
45540;SDS011;31265;49.680;8.608;2023-10-13T00:22:08;11.77;;;2.30;;
45540;SDS011;31265;49.680;8.608;2023-10-13T00:24:37;4.53;;;2.50;;
45540;SDS011;31265;49.680;8.608;2023-10-13T00:27:13;8.00;;;2.85;;
45540;SDS011;31265;49.680;8.608;2023-10-13T00:29:56;12.50;;;3.20;;
45540;SDS011;31265;49.680;8.608;2023-10-13T00:32:49;7.38;;;2.72;;
45540;SDS011;31265;49.680;8.608;2023-10-13T00:35:22;6.47;;;2.53;;
45540;SDS011;31265;49.680;8.608;2023-10-13T00:37:58;6.15;;;2.50;;
45540;SDS011;31265;49.680;8.608;2023-10-13T00:40:31;9.77;;;3.03;;
45540;SDS011;31265;49.680;8.608;2023-10-13T00:43:11;8.57;;;2.22;;
45540;SDS011;31265;49.680;8.608;2023-10-13T00:45:57;6.38;;;2.50;;
45540;SDS011;31265;49.680;8.608;2023-10-13T00:48:36;8.05;;;2.75;;
45540;SDS011;31265;49.680;8.608;2023-10-13T00:51:19;7.03;;;2.75;;
45540;SDS011;31265;49.680;8.608;2023-10-13T00:54:02;7.50;;;2.63;;
45540;SDS011;31265;49.680;8.608;2023-10-13T00:56:35;4.82;;;2.50;;
45540;SDS011;31265;49.680;8.608;2023-10-13T00:59:08;7.13;;;2.92;;
45540;SDS011;31265;49.680;8.608;2023-10-13T01:01:40;7.03;;;3.05;;
45540;SDS011;31265;49.680;8.608;2023-10-13T01:04:10;13.23;;;2.92;;
45540;SDS011;31265;49.680;8.608;2023-10-13T01:06:42;7.13;;;2.42;;
45540;SDS011;31265;49.680;8.608;2023-10-13T01:09:11;6.60;;;1.85;;
45540;SDS011;31265;49.680;8.608;2023-10-13T01:11:40;5.85;;;2.50;;
45540;SDS011;31265;49.680;8.608;2023-10-13T01:14:12;10.15;;;3.75;;
45540;SDS011;31265;49.680;8.608;2023-10-13T01:16:42;6.90;;;2.47;;
45540;SDS011;31265;49.680;8.608;2023-10-13T01:19:11;11.75;;;2.88;;
45540;SDS011;31265;49.680;8.608;2023-10-13T01:21:41;4.95;;;2.15;;
45540;SDS011;31265;49.680;8.608;2023-10-13T01:24:12;6.85;;;2.90;;
45540;SDS011;31265;49.680;8.608;2023-10-13T01:26:44;11.80;;;2.58;;
45540;SDS011;31265;49.680;8.608;2023-10-13T01:29:18;8.13;;;2.65;;
45540;SDS011;31265;49.680;8.608;2023-10-13T01:31:46;7.53;;;3.22;;
45540;SDS011;31265;49.680;8.608;2023-10-13T01:34:16;7.67;;;3.30;;
45540;SDS011;31265;49.680;8.608;2023-10-13T01:36:47;8.50;;;2.28;;
45540;SDS011;31265;49.680;8.608;2023-10-13T01:39:20;4.80;;;2.90;;
45540;SDS011;31265;49.680;8.608;2023-10-13T01:41:48;8.25;;;2.95;;
45540;SDS011;31265;49.680;8.608;2023-10-13T01:44:23;5.45;;;2.72;;
45540;SDS011;31265;49.680;8.608;2023-10-13T01:46:55;8.20;;;3.05;;
45540;SDS011;31265;49.680;8.608;2023-10-13T01:49:22;3.72;;;2.10;;
45540;SDS011;31265;49.680;8.608;2023-10-13T01:51:51;11.15;;;2.92;;
45540;SDS011;31265;49.680;8.608;2023-10-13T01:54:19;6.97;;;2.38;;
45540;SDS011;31265;49.680;8.608;2023-10-13T01:56:48;10.00;;;2.40;;
45540;SDS011;31265;49.680;8.608;2023-10-13T01:59:16;6.95;;;2.58;;
45540;SDS011;31265;49.680;8.608;2023-10-13T02:01:45;8.20;;;3.25;;
45540;SDS011;31265;49.680;8.608;2023-10-13T02:04:13;11.35;;;2.75;;
45540;SDS011;31265;49.680;8.608;2023-10-13T02:06:42;6.90;;;2.92;;
45540;SDS011;31265;49.680;8.608;2023-10-13T02:09:10;6.13;;;3.15;;
45540;SDS011;31265;49.680;8.608;2023-10-13T02:11:45;7.65;;;3.03;;
45540;SDS011;31265;49.680;8.608;2023-10-13T02:14:12;6.57;;;3.03;;
45540;SDS011;31265;49.680;8.608;2023-10-13T02:16:43;6.53;;;3.08;;
45540;SDS011;31265;49.680;8.608;2023-10-13T02:19:14;4.78;;;2.35;;
45540;SDS011;31265;49.680;8.608;2023-10-13T02:21:45;8.98;;;3.13;;
45540;SDS011;31265;49.680;8.608;2023-10-13T02:24:14;7.35;;;2.67;;
45540;SDS011;31265;49.680;8.608;2023-10-13T02:26:47;10.18;;;2.65;;
45540;SDS011;31265;49.680;8.608;2023-10-13T02:29:14;8.80;;;2.70;;
45540;SDS011;31265;49.680;8.608;2023-10-13T02:31:45;8.27;;;3.20;;
45540;SDS011;31265;49.680;8.608;2023-10-13T02:34:22;6.15;;;2.70;;
45540;SDS011;31265;49.680;8.608;2023-10-13T02:36:50;6.50;;;2.83;;
45540;SDS011;31265;49.680;8.608;2023-10-13T02:39:21;5.82;;;2.25;;
45540;SDS011;31265;49.680;8.608;2023-10-13T02:41:55;6.78;;;3.00;;
45540;SDS011;31265;49.680;8.608;2023-10-13T02:44:22;4.45;;;2.30;;
45540;SDS011;31265;49.680;8.608;2023-10-13T02:46:57;6.13;;;2.88;;
45540;SDS011;31265;49.680;8.608;2023-10-13T02:49:26;6.20;;;3.17;;
45540;SDS011;31265;49.680;8.608;2023-10-13T02:51:58;8.57;;;3.25;;
45540;SDS011;31265;49.680;8.608;2023-10-13T02:54:32;6.47;;;2.70;;
45540;SDS011;31265;49.680;8.608;2023-10-13T02:57:08;5.30;;;2.78;;
45540;SDS011;31265;49.680;8.608;2023-10-13T02:59:38;5.28;;;3.03;;
45540;SDS011;31265;49.680;8.608;2023-10-13T03:02:13;5.80;;;2.95;;
45540;SDS011;31265;49.680;8.608;2023-10-13T03:04:50;8.73;;;3.22;;
45540;SDS011;31265;49.680;8.608;2023-10-13T03:07:18;7.18;;;3.50;;
45540;SDS011;31265;49.680;8.608;2023-10-13T03:09:50;6.18;;;2.40;;
45540;SDS011;31265;49.680;8.608;2023-10-13T03:12:20;6.27;;;2.70;;
45540;SDS011;31265;49.680;8.608;2023-10-13T03:14:51;7.57;;;3.28;;
45540;SDS011;31265;49.680;8.608;2023-10-13T03:17:39;7.30;;;3.67;;
45540;SDS011;31265;49.680;8.608;2023-10-13T03:20:11;11.77;;;3.78;;
45540;SDS011;31265;49.680;8.608;2023-10-13T03:22:40;6.80;;;3.05;;
45540;SDS011;31265;49.680;8.608;2023-10-13T03:25:12;9.52;;;2.97;;
45540;SDS011;31265;49.680;8.608;2023-10-13T03:27:49;6.32;;;3.10;;
45540;SDS011;31265;49.680;8.608;2023-10-13T03:30:31;7.60;;;2.97;;
45540;SDS011;31265;49.680;8.608;2023-10-13T03:33:05;8.35;;;2.72;;
45540;SDS011;31265;49.680;8.608;2023-10-13T03:35:37;7.75;;;3.45;;
45540;SDS011;31265;49.680;8.608;2023-10-13T03:38:08;8.50;;;3.13;;
45540;SDS011;31265;49.680;8.608;2023-10-13T03:40:44;7.28;;;3.03;;
45540;SDS011;31265;49.680;8.608;2023-10-13T03:43:18;7.13;;;2.97;;
45540;SDS011;31265;49.680;8.608;2023-10-13T03:45:49;8.10;;;3.10;;
45540;SDS011;31265;49.680;8.608;2023-10-13T03:48:28;4.93;;;2.40;;
45540;SDS011;31265;49.680;8.608;2023-10-13T03:50:57;6.87;;;2.80;;
45540;SDS011;31265;49.680;8.608;2023-10-13T03:53:30;11.63;;;2.97;;
45540;SDS011;31265;49.680;8.608;2023-10-13T03:56:02;6.22;;;3.00;;
45540;SDS011;31265;49.680;8.608;2023-10-13T03:58:41;6.22;;;2.67;;
45540;SDS011;31265;49.680;8.608;2023-10-13T04:01:13;6.63;;;3.35;;
45540;SDS011;31265;49.680;8.608;2023-10-13T04:03:44;6.70;;;2.55;;
45540;SDS011;31265;49.680;8.608;2023-10-13T04:06:30;8.18;;;2.50;;
45540;SDS011;31265;49.680;8.608;2023-10-13T04:09:17;6.80;;;2.63;;
45540;SDS011;31265;49.680;8.608;2023-10-13T04:12:16;8.93;;;3.03;;
45540;SDS011;31265;49.680;8.608;2023-10-13T04:15:11;6.00;;;3.03;;
45540;SDS011;31265;49.680;8.608;2023-10-13T04:17:50;7.80;;;2.95;;
45540;SDS011;31265;49.680;8.608;2023-10-13T04:20:19;8.85;;;2.60;;
45540;SDS011;31265;49.680;8.608;2023-10-13T04:23:05;5.13;;;2.10;;
45540;SDS011;31265;49.680;8.608;2023-10-13T04:25:46;8.85;;;3.47;;
45540;SDS011;31265;49.680;8.608;2023-10-13T04:28:35;8.95;;;3.53;;
45540;SDS011;31265;49.680;8.608;2023-10-13T04:31:06;5.85;;;2.75;;
45540;SDS011;31265;49.680;8.608;2023-10-13T04:33:41;6.72;;;2.60;;
45540;SDS011;31265;49.680;8.608;2023-10-13T04:36:18;5.38;;;2.58;;
45540;SDS011;31265;49.680;8.608;2023-10-13T04:39:03;10.73;;;3.00;;
45540;SDS011;31265;49.680;8.608;2023-10-13T04:41:44;6.95;;;3.08;;
45540;SDS011;31265;49.680;8.608;2023-10-13T04:44:24;6.28;;;2.83;;
45540;SDS011;31265;49.680;8.608;2023-10-13T04:47:12;5.03;;;2.50;;
45540;SDS011;31265;49.680;8.608;2023-10-13T04:49:48;9.55;;;2.33;;
45540;SDS011;31265;49.680;8.608;2023-10-13T04:52:19;7.15;;;2.30;;
45540;SDS011;31265;49.680;8.608;2023-10-13T04:55:18;8.33;;;2.00;;
45540;SDS011;31265;49.680;8.608;2023-10-13T04:58:00;4.95;;;2.20;;
45540;SDS011;31265;49.680;8.608;2023-10-13T05:00:41;11.57;;;2.58;;
45540;SDS011;31265;49.680;8.608;2023-10-13T05:03:40;4.68;;;2.30;;
45540;SDS011;31265;49.680;8.608;2023-10-13T05:06:21;4.78;;;2.17;;
45540;SDS011;31265;49.680;8.608;2023-10-13T05:09:08;8.25;;;2.78;;
45540;SDS011;31265;49.680;8.608;2023-10-13T05:11:54;4.63;;;2.13;;
45540;SDS011;31265;49.680;8.608;2023-10-13T05:14:40;6.32;;;2.33;;
45540;SDS011;31265;49.680;8.608;2023-10-13T05:17:25;6.32;;;2.38;;
45540;SDS011;31265;49.680;8.608;2023-10-13T05:20:13;5.25;;;2.17;;
45540;SDS011;31265;49.680;8.608;2023-10-13T05:22:59;5.45;;;2.25;;
45540;SDS011;31265;49.680;8.608;2023-10-13T05:25:45;5.15;;;2.45;;
45540;SDS011;31265;49.680;8.608;2023-10-13T05:28:32;5.45;;;2.05;;
45540;SDS011;31265;49.680;8.608;2023-10-13T05:31:18;6.28;;;2.15;;
45540;SDS011;31265;49.680;8.608;2023-10-13T05:34:04;4.55;;;1.95;;
45540;SDS011;31265;49.680;8.608;2023-10-13T05:36:51;4.45;;;2.08;;
45540;SDS011;31265;49.680;8.608;2023-10-13T05:39:37;5.82;;;2.20;;
45540;SDS011;31265;49.680;8.608;2023-10-13T05:42:23;7.07;;;2.38;;
45540;SDS011;31265;49.680;8.608;2023-10-13T05:45:11;5.78;;;2.28;;
45540;SDS011;31265;49.680;8.608;2023-10-13T05:48:03;4.85;;;2.28;;
45540;SDS011;31265;49.680;8.608;2023-10-13T05:50:39;7.53;;;1.92;;
45540;SDS011;31265;49.680;8.608;2023-10-13T05:53:35;3.72;;;1.67;;
45540;SDS011;31265;49.680;8.608;2023-10-13T05:56:21;6.68;;;2.13;;
45540;SDS011;31265;49.680;8.608;2023-10-13T05:59:07;4.18;;;2.35;;
45540;SDS011;31265;49.680;8.608;2023-10-13T06:01:52;4.75;;;2.28;;
45540;SDS011;31265;49.680;8.608;2023-10-13T06:04:39;7.30;;;2.47;;
45540;SDS011;31265;49.680;8.608;2023-10-13T06:07:24;5.18;;;2.45;;
45540;SDS011;31265;49.680;8.608;2023-10-13T06:10:12;6.78;;;3.00;;
45540;SDS011;31265;49.680;8.608;2023-10-13T06:12:58;4.68;;;2.10;;
45540;SDS011;31265;49.680;8.608;2023-10-13T06:15:44;10.93;;;2.55;;
45540;SDS011;31265;49.680;8.608;2023-10-13T06:18:26;7.28;;;1.98;;
45540;SDS011;31265;49.680;8.608;2023-10-13T06:21:12;6.30;;;2.30;;
45540;SDS011;31265;49.680;8.608;2023-10-13T06:23:58;5.55;;;2.58;;
45540;SDS011;31265;49.680;8.608;2023-10-13T06:26:45;3.78;;;1.60;;
45540;SDS011;31265;49.680;8.608;2023-10-13T06:29:29;5.13;;;1.90;;
45540;SDS011;31265;49.680;8.608;2023-10-13T06:31:58;4.80;;;2.17;;
45540;SDS011;31265;49.680;8.608;2023-10-13T06:34:28;6.05;;;2.03;;
45540;SDS011;31265;49.680;8.608;2023-10-13T06:37:09;6.45;;;2.78;;
45540;SDS011;31265;49.680;8.608;2023-10-13T06:39:49;7.13;;;2.13;;
45540;SDS011;31265;49.680;8.608;2023-10-13T06:42:19;4.47;;;1.70;;
45540;SDS011;31265;49.680;8.608;2023-10-13T06:44:48;7.93;;;3.00;;
45540;SDS011;31265;49.680;8.608;2023-10-13T06:47:18;4.50;;;1.90;;
45540;SDS011;31265;49.680;8.608;2023-10-13T06:49:47;7.50;;;2.60;;
45540;SDS011;31265;49.680;8.608;2023-10-13T06:52:18;4.60;;;1.98;;
45540;SDS011;31265;49.680;8.608;2023-10-13T06:54:46;8.00;;;1.98;;
45540;SDS011;31265;49.680;8.608;2023-10-13T06:57:15;6.72;;;2.03;;
45540;SDS011;31265;49.680;8.608;2023-10-13T06:59:48;7.30;;;2.08;;
45540;SDS011;31265;49.680;8.608;2023-10-13T07:02:18;9.25;;;1.58;;
45540;SDS011;31265;49.680;8.608;2023-10-13T07:04:54;5.97;;;1.52;;
45540;SDS011;31265;49.680;8.608;2023-10-13T07:07:35;4.07;;;1.90;;
45540;SDS011;31265;49.680;8.608;2023-10-13T07:10:07;7.07;;;2.15;;
45540;SDS011;31265;49.680;8.608;2023-10-13T07:12:37;3.35;;;1.70;;
45540;SDS011;31265;49.680;8.608;2023-10-13T07:15:11;4.85;;;1.80;;
45540;SDS011;31265;49.680;8.608;2023-10-13T07:17:46;7.32;;;2.03;;
45540;SDS011;31265;49.680;8.608;2023-10-13T07:20:22;6.00;;;2.30;;
45540;SDS011;31265;49.680;8.608;2023-10-13T07:23:00;3.55;;;1.58;;
45540;SDS011;31265;49.680;8.608;2023-10-13T07:25:33;6.50;;;1.85;;
45540;SDS011;31265;49.680;8.608;2023-10-13T07:28:04;4.68;;;2.10;;
45540;SDS011;31265;49.680;8.608;2023-10-13T07:30:36;14.82;;;2.35;;
45540;SDS011;31265;49.680;8.608;2023-10-13T07:33:11;4.45;;;1.88;;
45540;SDS011;31265;49.680;8.608;2023-10-13T07:35:40;4.88;;;1.90;;
45540;SDS011;31265;49.680;8.608;2023-10-13T07:38:09;5.15;;;2.05;;
45540;SDS011;31265;49.680;8.608;2023-10-13T07:40:37;3.90;;;1.85;;
45540;SDS011;31265;49.680;8.608;2023-10-13T07:43:09;5.20;;;1.90;;
45540;SDS011;31265;49.680;8.608;2023-10-13T07:45:39;7.43;;;1.95;;
45540;SDS011;31265;49.680;8.608;2023-10-13T07:48:10;3.08;;;1.35;;
45540;SDS011;31265;49.680;8.608;2023-10-13T07:50:47;5.35;;;1.75;;
45540;SDS011;31265;49.680;8.608;2023-10-13T07:53:16;7.53;;;1.50;;
45540;SDS011;31265;49.680;8.608;2023-10-13T07:55:50;6.30;;;1.90;;
45540;SDS011;31265;49.680;8.608;2023-10-13T07:58:23;5.47;;;1.48;;
45540;SDS011;31265;49.680;8.608;2023-10-13T08:00:54;7.97;;;2.20;;
45540;SDS011;31265;49.680;8.608;2023-10-13T08:03:34;4.50;;;1.92;;
45540;SDS011;31265;49.680;8.608;2023-10-13T08:06:04;6.68;;;1.60;;
45540;SDS011;31265;49.680;8.608;2023-10-13T08:08:48;4.60;;;1.90;;
45540;SDS011;31265;49.680;8.608;2023-10-13T08:11:34;5.20;;;1.70;;
45540;SDS011;31265;49.680;8.608;2023-10-13T08:14:04;4.10;;;1.77;;
45540;SDS011;31265;49.680;8.608;2023-10-13T08:17:07;3.78;;;1.70;;
45540;SDS011;31265;49.680;8.608;2023-10-13T08:19:37;10.00;;;1.85;;
45540;SDS011;31265;49.680;8.608;2023-10-13T08:22:12;5.80;;;1.90;;
45540;SDS011;31265;49.680;8.608;2023-10-13T08:25:03;3.03;;;1.58;;
45540;SDS011;31265;49.680;8.608;2023-10-13T08:27:47;9.82;;;1.98;;
45540;SDS011;31265;49.680;8.608;2023-10-13T08:30:46;5.22;;;2.00;;
45540;SDS011;31265;49.680;8.608;2023-10-13T08:33:20;9.40;;;2.20;;
45540;SDS011;31265;49.680;8.608;2023-10-13T08:35:54;5.45;;;1.40;;
45540;SDS011;31265;49.680;8.608;2023-10-13T08:38:43;8.20;;;1.67;;
45540;SDS011;31265;49.680;8.608;2023-10-13T08:41:18;5.68;;;1.98;;
45540;SDS011;31265;49.680;8.608;2023-10-13T08:43:59;7.00;;;1.65;;
45540;SDS011;31265;49.680;8.608;2023-10-13T08:46:38;3.00;;;1.33;;
45540;SDS011;31265;49.680;8.608;2023-10-13T08:49:32;7.63;;;2.45;;
45540;SDS011;31265;49.680;8.608;2023-10-13T08:52:09;6.65;;;1.90;;
45540;SDS011;31265;49.680;8.608;2023-10-13T08:58:29;3.90;;;1.70;;
45540;SDS011;31265;49.680;8.608;2023-10-13T09:01:13;4.20;;;1.77;;
45540;SDS011;31265;49.680;8.608;2023-10-13T09:04:03;6.55;;;1.30;;
45540;SDS011;31265;49.680;8.608;2023-10-13T09:06:55;6.05;;;1.83;;
45540;SDS011;31265;49.680;8.608;2023-10-13T09:09:46;4.53;;;1.75;;
45540;SDS011;31265;49.680;8.608;2023-10-13T09:12:39;4.15;;;1.95;;
45540;SDS011;31265;49.680;8.608;2023-10-13T09:15:11;2.70;;;1.20;;
45540;SDS011;31265;49.680;8.608;2023-10-13T09:17:46;4.60;;;1.92;;
45540;SDS011;31265;49.680;8.608;2023-10-13T09:20:28;6.07;;;1.60;;
45540;SDS011;31265;49.680;8.608;2023-10-13T09:23:10;8.88;;;2.60;;
45540;SDS011;31265;49.680;8.608;2023-10-13T09:25:40;7.88;;;2.00;;
45540;SDS011;31265;49.680;8.608;2023-10-13T09:28:21;8.38;;;1.92;;
45540;SDS011;31265;49.680;8.608;2023-10-13T09:30:51;5.60;;;2.05;;
45540;SDS011;31265;49.680;8.608;2023-10-13T09:33:21;4.28;;;1.73;;
45540;SDS011;31265;49.680;8.608;2023-10-13T09:36:01;2.70;;;1.58;;
45540;SDS011;31265;49.680;8.608;2023-10-13T09:38:32;3.03;;;1.60;;
45540;SDS011;31265;49.680;8.608;2023-10-13T09:41:01;4.03;;;1.50;;
45540;SDS011;31265;49.680;8.608;2023-10-13T09:43:45;7.13;;;1.70;;
45540;SDS011;31265;49.680;8.608;2023-10-13T09:46:19;3.92;;;1.90;;
45540;SDS011;31265;49.680;8.608;2023-10-13T09:48:50;5.15;;;1.77;;
45540;SDS011;31265;49.680;8.608;2023-10-13T09:51:32;5.95;;;1.90;;
45540;SDS011;31265;49.680;8.608;2023-10-13T09:54:03;4.60;;;1.65;;
45540;SDS011;31265;49.680;8.608;2023-10-13T09:57:06;3.85;;;1.63;;
45540;SDS011;31265;49.680;8.608;2023-10-13T09:59:45;9.02;;;2.22;;
45540;SDS011;31265;49.680;8.608;2023-10-13T10:02:19;5.93;;;1.38;;
45540;SDS011;31265;49.680;8.608;2023-10-13T10:04:53;3.25;;;1.48;;
45540;SDS011;31265;49.680;8.608;2023-10-13T10:07:28;3.33;;;1.40;;
45540;SDS011;31265;49.680;8.608;2023-10-13T10:09:59;4.28;;;1.35;;
45540;SDS011;31265;49.680;8.608;2023-10-13T10:12:30;5.57;;;1.60;;
45540;SDS011;31265;49.680;8.608;2023-10-13T10:15:07;4.17;;;2.17;;
45540;SDS011;31265;49.680;8.608;2023-10-13T10:17:47;3.70;;;1.27;;
45540;SDS011;31265;49.680;8.608;2023-10-13T10:20:27;4.50;;;2.13;;
45540;SDS011;31265;49.680;8.608;2023-10-13T10:23:01;3.65;;;1.60;;
45540;SDS011;31265;49.680;8.608;2023-10-13T10:25:32;4.70;;;1.70;;
45540;SDS011;31265;49.680;8.608;2023-10-13T10:28:04;4.47;;;1.30;;
45540;SDS011;31265;49.680;8.608;2023-10-13T10:30:37;3.75;;;1.30;;
45540;SDS011;31265;49.680;8.608;2023-10-13T10:33:06;7.45;;;1.88;;
45540;SDS011;31265;49.680;8.608;2023-10-13T10:35:39;4.28;;;1.52;;
45540;SDS011;31265;49.680;8.608;2023-10-13T10:38:12;3.78;;;1.48;;
45540;SDS011;31265;49.680;8.608;2023-10-13T10:40:51;5.45;;;1.27;;
45540;SDS011;31265;49.680;8.608;2023-10-13T10:43:26;3.30;;;1.55;;
45540;SDS011;31265;49.680;8.608;2023-10-13T10:46:00;4.78;;;1.50;;
45540;SDS011;31265;49.680;8.608;2023-10-13T10:48:30;4.60;;;1.20;;
45540;SDS011;31265;49.680;8.608;2023-10-13T10:51:05;3.90;;;1.58;;
45540;SDS011;31265;49.680;8.608;2023-10-13T10:53:49;2.78;;;1.42;;
45540;SDS011;31265;49.680;8.608;2023-10-13T10:56:22;2.75;;;1.25;;
45540;SDS011;31265;49.680;8.608;2023-10-13T10:58:54;11.10;;;1.65;;
45540;SDS011;31265;49.680;8.608;2023-10-13T11:01:24;3.08;;;1.30;;
45540;SDS011;31265;49.680;8.608;2023-10-13T11:04:02;5.65;;;1.80;;
45540;SDS011;31265;49.680;8.608;2023-10-13T11:06:35;4.97;;;1.60;;
45540;SDS011;31265;49.680;8.608;2023-10-13T11:09:11;3.38;;;1.60;;
45540;SDS011;31265;49.680;8.608;2023-10-13T11:14:43;4.75;;;1.27;;
45540;SDS011;31265;49.680;8.608;2023-10-13T11:17:18;6.13;;;1.80;;
45540;SDS011;31265;49.680;8.608;2023-10-13T11:19:55;3.70;;;1.58;;
45540;SDS011;31265;49.680;8.608;2023-10-13T11:22:24;3.50;;;1.38;;
45540;SDS011;31265;49.680;8.608;2023-10-13T11:25:02;3.90;;;1.33;;
45540;SDS011;31265;49.680;8.608;2023-10-13T11:27:38;4.25;;;1.80;;
45540;SDS011;31265;49.680;8.608;2023-10-13T11:30:23;7.50;;;1.38;;
45540;SDS011;31265;49.680;8.608;2023-10-13T11:33:08;4.80;;;1.65;;
45540;SDS011;31265;49.680;8.608;2023-10-13T11:35:39;3.40;;;1.70;;
45540;SDS011;31265;49.680;8.608;2023-10-13T11:38:25;3.67;;;1.58;;
45540;SDS011;31265;49.680;8.608;2023-10-13T11:40:59;4.53;;;1.58;;
45540;SDS011;31265;49.680;8.608;2023-10-13T11:43:36;6.05;;;2.00;;
45540;SDS011;31265;49.680;8.608;2023-10-13T11:46:20;4.95;;;1.60;;
45540;SDS011;31265;49.680;8.608;2023-10-13T11:49:07;5.32;;;1.80;;
45540;SDS011;31265;49.680;8.608;2023-10-13T11:51:45;5.25;;;1.35;;
45540;SDS011;31265;49.680;8.608;2023-10-13T11:54:15;7.60;;;1.50;;
45540;SDS011;31265;49.680;8.608;2023-10-13T11:56:51;9.38;;;2.25;;
45540;SDS011;31265;49.680;8.608;2023-10-13T11:59:22;2.80;;;1.52;;
45540;SDS011;31265;49.680;8.608;2023-10-13T12:01:54;4.97;;;2.17;;
45540;SDS011;31265;49.680;8.608;2023-10-13T12:04:47;3.72;;;1.60;;
45540;SDS011;31265;49.680;8.608;2023-10-13T12:07:19;4.93;;;1.55;;
45540;SDS011;31265;49.680;8.608;2023-10-13T12:09:51;5.35;;;1.67;;
45540;SDS011;31265;49.680;8.608;2023-10-13T12:12:31;3.70;;;1.77;;
45540;SDS011;31265;49.680;8.608;2023-10-13T12:15:07;4.90;;;1.95;;
45540;SDS011;31265;49.680;8.608;2023-10-13T12:17:53;4.22;;;1.80;;
45540;SDS011;31265;49.680;8.608;2023-10-13T12:20:26;3.30;;;1.75;;
45540;SDS011;31265;49.680;8.608;2023-10-13T12:23:00;8.52;;;1.48;;
45540;SDS011;31265;49.680;8.608;2023-10-13T12:25:42;3.67;;;1.55;;
45540;SDS011;31265;49.680;8.608;2023-10-13T12:28:32;9.30;;;2.60;;
45540;SDS011;31265;49.680;8.608;2023-10-13T12:31:08;3.88;;;1.65;;
45540;SDS011;31265;49.680;8.608;2023-10-13T12:33:39;4.85;;;1.83;;
45540;SDS011;31265;49.680;8.608;2023-10-13T12:36:09;7.10;;;1.73;;
45540;SDS011;31265;49.680;8.608;2023-10-13T12:38:42;5.57;;;2.00;;
45540;SDS011;31265;49.680;8.608;2023-10-13T12:41:29;4.22;;;1.95;;
45540;SDS011;31265;49.680;8.608;2023-10-13T12:44:31;4.07;;;1.77;;
45540;SDS011;31265;49.680;8.608;2023-10-13T12:47:17;4.93;;;1.90;;
45540;SDS011;31265;49.680;8.608;2023-10-13T12:50:04;7.28;;;2.35;;
45540;SDS011;31265;49.680;8.608;2023-10-13T12:52:41;2.85;;;1.15;;
45540;SDS011;31265;49.680;8.608;2023-10-13T12:55:12;5.05;;;2.03;;
45540;SDS011;31265;49.680;8.608;2023-10-13T12:57:46;4.00;;;1.35;;
45540;SDS011;31265;49.680;8.608;2023-10-13T13:00:17;7.93;;;1.98;;
45540;SDS011;31265;49.680;8.608;2023-10-13T13:03:00;4.07;;;1.70;;
45540;SDS011;31265;49.680;8.608;2023-10-13T13:05:38;5.15;;;1.30;;
45540;SDS011;31265;49.680;8.608;2023-10-13T13:08:12;4.57;;;1.70;;
45540;SDS011;31265;49.680;8.608;2023-10-13T13:10:49;5.15;;;2.38;;
45540;SDS011;31265;49.680;8.608;2023-10-13T13:15:55;3.67;;;1.80;;
45540;SDS011;31265;49.680;8.608;2023-10-13T13:18:24;4.20;;;1.23;;
45540;SDS011;31265;49.680;8.608;2023-10-13T13:20:52;3.70;;;1.60;;
45540;SDS011;31265;49.680;8.608;2023-10-13T13:23:22;5.07;;;2.17;;
45540;SDS011;31265;49.680;8.608;2023-10-13T13:25:53;3.50;;;1.63;;
45540;SDS011;31265;49.680;8.608;2023-10-13T13:28:27;9.02;;;1.83;;
45540;SDS011;31265;49.680;8.608;2023-10-13T13:30:59;5.00;;;1.77;;
45540;SDS011;31265;49.680;8.608;2023-10-13T13:33:28;5.20;;;1.48;;
45540;SDS011;31265;49.680;8.608;2023-10-13T13:36:00;3.20;;;1.35;;
45540;SDS011;31265;49.680;8.608;2023-10-13T13:38:31;5.07;;;2.05;;
45540;SDS011;31265;49.680;8.608;2023-10-13T13:41:00;4.15;;;1.85;;
45540;SDS011;31265;49.680;8.608;2023-10-13T13:43:31;6.47;;;2.10;;
45540;SDS011;31265;49.680;8.608;2023-10-13T13:46:06;4.88;;;1.42;;
45540;SDS011;31265;49.680;8.608;2023-10-13T13:48:37;4.43;;;1.98;;
45540;SDS011;31265;49.680;8.608;2023-10-13T13:51:07;3.05;;;1.60;;
45540;SDS011;31265;49.680;8.608;2023-10-13T13:53:42;7.53;;;1.40;;
45540;SDS011;31265;49.680;8.608;2023-10-13T13:56:14;5.53;;;1.98;;
45540;SDS011;31265;49.680;8.608;2023-10-13T13:58:45;7.63;;;2.13;;
45540;SDS011;31265;49.680;8.608;2023-10-13T14:01:17;3.30;;;1.95;;
45540;SDS011;31265;49.680;8.608;2023-10-13T14:03:49;2.92;;;1.42;;
45540;SDS011;31265;49.680;8.608;2023-10-13T14:06:18;6.68;;;1.65;;
45540;SDS011;31265;49.680;8.608;2023-10-13T14:08:51;7.18;;;1.30;;
45540;SDS011;31265;49.680;8.608;2023-10-13T14:11:24;3.53;;;1.60;;
45540;SDS011;31265;49.680;8.608;2023-10-13T14:14:11;2.55;;;1.45;;
45540;SDS011;31265;49.680;8.608;2023-10-13T14:16:42;3.33;;;1.88;;
45540;SDS011;31265;49.680;8.608;2023-10-13T14:19:12;4.13;;;1.27;;
45540;SDS011;31265;49.680;8.608;2023-10-13T14:21:47;6.30;;;1.73;;
45540;SDS011;31265;49.680;8.608;2023-10-13T14:24:21;4.50;;;1.30;;
45540;SDS011;31265;49.680;8.608;2023-10-13T14:26:55;7.38;;;1.60;;
45540;SDS011;31265;49.680;8.608;2023-10-13T14:29:23;5.15;;;1.70;;
45540;SDS011;31265;49.680;8.608;2023-10-13T14:31:55;3.88;;;1.50;;
45540;SDS011;31265;49.680;8.608;2023-10-13T14:34:23;2.92;;;1.77;;
45540;SDS011;31265;49.680;8.608;2023-10-13T14:36:53;12.10;;;1.75;;
45540;SDS011;31265;49.680;8.608;2023-10-13T14:39:21;6.15;;;2.10;;
45540;SDS011;31265;49.680;8.608;2023-10-13T14:41:57;3.28;;;1.60;;
45540;SDS011;31265;49.680;8.608;2023-10-13T14:44:27;4.63;;;1.20;;
45540;SDS011;31265;49.680;8.608;2023-10-13T14:46:57;7.82;;;1.88;;
45540;SDS011;31265;49.680;8.608;2023-10-13T14:49:25;2.85;;;1.30;;
45540;SDS011;31265;49.680;8.608;2023-10-13T14:51:54;4.30;;;1.70;;
45540;SDS011;31265;49.680;8.608;2023-10-13T14:54:23;5.03;;;1.27;;
45540;SDS011;31265;49.680;8.608;2023-10-13T14:57:00;5.47;;;1.75;;
45540;SDS011;31265;49.680;8.608;2023-10-13T14:59:29;5.80;;;1.67;;
45540;SDS011;31265;49.680;8.608;2023-10-13T15:02:07;6.38;;;1.73;;
45540;SDS011;31265;49.680;8.608;2023-10-13T15:04:36;4.25;;;1.48;;
45540;SDS011;31265;49.680;8.608;2023-10-13T15:07:05;6.68;;;1.75;;
45540;SDS011;31265;49.680;8.608;2023-10-13T15:09:34;2.90;;;1.48;;
45540;SDS011;31265;49.680;8.608;2023-10-13T15:12:02;8.83;;;2.10;;
45540;SDS011;31265;49.680;8.608;2023-10-13T15:14:32;4.20;;;1.33;;
45540;SDS011;31265;49.680;8.608;2023-10-13T15:17:03;2.92;;;1.55;;
45540;SDS011;31265;49.680;8.608;2023-10-13T15:19:34;6.57;;;1.65;;
45540;SDS011;31265;49.680;8.608;2023-10-13T15:22:05;3.55;;;1.40;;
45540;SDS011;31265;49.680;8.608;2023-10-13T15:24:35;4.85;;;1.70;;
45540;SDS011;31265;49.680;8.608;2023-10-13T15:27:11;5.00;;;1.20;;
45540;SDS011;31265;49.680;8.608;2023-10-13T15:29:42;6.95;;;1.88;;
45540;SDS011;31265;49.680;8.608;2023-10-13T15:32:17;3.10;;;1.42;;
45540;SDS011;31265;49.680;8.608;2023-10-13T15:35:05;4.28;;;1.60;;
45540;SDS011;31265;49.680;8.608;2023-10-13T15:37:39;2.78;;;1.52;;
45540;SDS011;31265;49.680;8.608;2023-10-13T15:40:09;5.75;;;1.70;;
45540;SDS011;31265;49.680;8.608;2023-10-13T15:42:42;5.78;;;2.33;;
45540;SDS011;31265;49.680;8.608;2023-10-13T15:47:46;4.07;;;1.92;;
45540;SDS011;31265;49.680;8.608;2023-10-13T15:50:19;6.18;;;1.67;;
45540;SDS011;31265;49.680;8.608;2023-10-13T15:52:49;3.60;;;1.73;;